createdAt,value
2018-01-11T00:00:21.920Z,96.90
2018-01-11T00:02:49.965Z,97.00
2018-01-11T00:05:17.503Z,97.10
2018-01-11T00:07:45.045Z,97.30
2018-01-11T00:10:13.087Z,97.40
2018-01-11T00:12:40.631Z,97.40
2018-01-11T00:15:08.180Z,97.50
2018-01-11T00:17:35.747Z,97.90
2018-01-11T00:20:03.287Z,97.50
2018-01-11T00:22:30.820Z,97.50
2018-01-11T00:24:58.621Z,97.40
2018-01-11T00:27:26.165Z,97.70
2018-01-11T00:29:53.710Z,97.60
2018-01-11T00:32:21.300Z,97.30
2018-01-11T00:34:48.839Z,97.10
2018-01-11T00:37:16.447Z,97.30
2018-01-11T00:39:44.012Z,97.40
2018-01-11T00:42:12.320Z,97.30
2018-01-11T00:44:39.864Z,97.30
2018-01-11T00:47:08.654Z,97.20
2018-01-11T00:49:36.199Z,97.20
2018-01-11T00:52:04.499Z,97.00
2018-01-11T00:54:32.078Z,96.90
2018-01-11T00:56:59.619Z,97.30
2018-01-11T00:59:27.176Z,97.00
2018-01-11T01:01:54.739Z,97.10
2018-01-11T01:04:22.317Z,97.00
2018-01-11T01:06:49.851Z,97.40
2018-01-11T01:09:17.775Z,97.10
2018-01-11T01:11:45.806Z,97.00
2018-01-11T01:14:23.580Z,97.10
2018-01-11T01:21:13.529Z,97.50
2018-01-11T01:23:41.068Z,97.50
2018-01-11T01:26:08.607Z,97.70
2018-01-11T01:28:39.611Z,97.70
2018-01-11T01:31:07.156Z,97.60
2018-01-11T01:33:34.694Z,97.30
2018-01-11T01:36:02.259Z,97.10
2018-01-11T01:38:29.794Z,97.10
2018-01-11T01:40:58.107Z,97.50
2018-01-11T01:43:26.444Z,97.70
2018-01-11T01:45:53.998Z,97.60
2018-01-11T01:48:34.424Z,97.20
2018-01-11T01:51:01.976Z,97.40
2018-01-11T01:53:29.524Z,97.20
2018-01-11T01:55:57.095Z,97.40
2018-01-11T01:58:24.654Z,97.40
2018-01-11T02:00:52.192Z,97.10
2018-01-11T02:03:19.759Z,97.10
2018-01-11T02:05:47.302Z,97.00
2018-01-11T02:08:16.552Z,96.80
2018-01-11T02:10:44.816Z,97.10
2018-01-11T02:13:13.122Z,97.20
2018-01-11T02:15:40.665Z,97.10
2018-01-11T02:18:08.242Z,96.50
2018-01-11T02:20:35.779Z,96.50
2018-01-11T02:23:03.321Z,96.60
2018-01-11T02:25:30.907Z,96.70
2018-01-11T02:27:58.519Z,96.80
2018-01-11T02:30:26.060Z,96.90
2018-01-11T02:32:54.547Z,97.30
2018-01-11T02:35:22.087Z,97.20
2018-01-11T02:37:49.623Z,97.10
2018-01-11T02:40:17.183Z,97.30
2018-01-11T02:42:44.763Z,97.10
2018-01-11T02:45:12.303Z,96.90
2018-01-11T02:47:39.879Z,96.90
2018-01-11T02:50:07.422Z,96.60
2018-01-11T02:52:34.962Z,96.80
2018-01-11T02:55:02.761Z,96.40
2018-01-11T02:57:30.307Z,96.40
2018-01-11T02:59:57.848Z,96.10
2018-01-11T03:02:25.420Z,96.20
2018-01-11T03:04:52.965Z,96.30
2018-01-11T03:07:21.267Z,96.50
2018-01-11T03:09:48.823Z,96.70
2018-01-11T03:12:16.507Z,96.80
2018-01-11T03:14:45.119Z,96.70
2018-01-11T03:17:13.079Z,96.80
2018-01-11T03:19:41.380Z,97.20
2018-01-11T03:22:08.911Z,97.20
2018-01-11T03:24:36.513Z,97.00
2018-01-11T03:27:04.051Z,97.00
2018-01-11T03:29:31.595Z,96.70
2018-01-11T03:31:59.155Z,96.70
2018-01-11T03:34:26.699Z,96.80
2018-01-11T03:36:54.251Z,97.10
2018-01-11T03:39:22.399Z,97.20
2018-01-11T03:41:49.942Z,97.30
2018-01-11T03:44:17.480Z,97.30
2018-01-11T03:46:45.812Z,97.40
2018-01-11T03:49:14.463Z,97.50
2018-01-11T03:51:42.001Z,97.50
2018-01-11T03:54:10.326Z,97.60
2018-01-11T03:56:37.854Z,97.60
2018-01-11T03:59:05.400Z,97.40
2018-01-11T04:01:33.523Z,97.60
2018-01-11T04:04:01.063Z,97.50
2018-01-11T04:06:28.606Z,97.40
2018-01-11T04:08:56.252Z,97.50
2018-01-11T04:11:24.568Z,97.60
2018-01-11T04:13:52.120Z,97.70
2018-01-11T04:16:21.111Z,97.60
2018-01-11T04:18:48.643Z,97.60
2018-01-11T04:21:17.255Z,97.60
2018-01-11T04:23:45.116Z,97.60
2018-01-11T04:26:13.678Z,97.40
2018-01-11T04:28:41.223Z,97.00
2018-01-11T04:31:09.580Z,96.60
2018-01-11T04:33:37.119Z,96.60
2018-01-11T04:36:04.683Z,96.50
2018-01-11T04:38:32.243Z,96.40
2018-01-11T04:40:59.771Z,96.20
2018-01-11T04:43:27.323Z,96.40
2018-01-11T04:45:55.379Z,96.70
2018-01-11T04:48:23.679Z,97.00
2018-01-11T04:50:51.214Z,97.00
2018-01-11T04:53:18.780Z,96.80
2018-01-11T04:55:47.085Z,96.90
2018-01-11T04:58:16.281Z,96.90
2018-01-11T05:00:49.556Z,96.90
2018-01-11T05:03:17.857Z,96.80
2018-01-11T05:05:45.404Z,96.70
2018-01-11T05:08:25.335Z,96.40
2018-01-11T05:13:29.295Z,96.40
2018-01-11T05:15:56.832Z,96.50
2018-01-11T05:18:25.316Z,96.50
2018-01-11T05:20:52.874Z,96.40
2018-01-11T05:23:20.411Z,96.00
2018-01-11T05:25:47.952Z,96.00
2018-01-11T05:28:16.907Z,96.30
2018-01-11T05:30:44.479Z,96.40
2018-01-11T05:33:12.011Z,96.20
2018-01-11T05:35:39.619Z,96.40
2018-01-11T05:38:07.152Z,96.50
2018-01-11T05:40:34.678Z,96.60
2018-01-11T05:43:03.012Z,96.60
2018-01-11T05:45:30.547Z,96.60
2018-01-11T05:47:58.079Z,96.60
2018-01-11T05:50:26.927Z,96.50
2018-01-11T05:52:54.467Z,96.50
2018-01-11T05:55:21.995Z,96.40
2018-01-11T05:57:49.555Z,96.40
2018-01-11T06:00:17.088Z,96.20
2018-01-11T06:02:45.400Z,96.20
2018-01-11T06:05:15.443Z,96.50
2018-01-11T06:07:42.988Z,96.50
2018-01-11T06:10:10.533Z,96.50
2018-01-11T06:12:38.475Z,96.50
2018-01-11T06:15:06.018Z,96.60
2018-01-11T06:17:33.596Z,96.50
2018-01-11T06:20:02.770Z,96.70
2018-01-11T06:22:30.307Z,96.70
2018-01-11T06:24:57.863Z,96.80
2018-01-11T06:27:25.424Z,96.80
2018-01-11T06:29:52.974Z,96.70
2018-01-11T06:32:20.516Z,96.90
2018-01-11T06:34:48.116Z,97.00
2018-01-11T06:37:16.540Z,96.90
2018-01-11T06:39:44.080Z,97.00
2018-01-11T06:42:11.631Z,96.60
2018-01-11T06:44:39.411Z,96.50
2018-01-11T06:47:06.938Z,96.40
2018-01-11T06:49:34.496Z,96.40
2018-01-11T06:52:02.039Z,96.40
2018-01-11T06:54:29.575Z,96.20
2018-01-11T06:56:57.195Z,96.00
2018-01-11T06:59:24.731Z,95.90
2018-01-11T07:01:52.259Z,95.70
2018-01-11T07:04:19.820Z,95.60
2018-01-11T07:06:47.383Z,95.90
2018-01-11T07:09:16.424Z,95.90
2018-01-11T07:11:43.987Z,95.80
2018-01-11T07:14:11.526Z,95.90
2018-01-11T07:16:39.059Z,95.80
2018-01-11T07:19:07.215Z,96.00
2018-01-11T07:21:35.183Z,95.90
2018-01-11T07:24:02.715Z,96.10
2018-01-11T07:26:30.285Z,95.90
2018-01-11T07:28:57.825Z,95.80
2018-01-11T07:31:25.355Z,95.80
2018-01-11T07:33:52.915Z,95.80
2018-01-11T07:36:20.451Z,95.90
2018-01-11T07:38:47.999Z,95.90
2018-01-11T07:41:17.451Z,95.50
2018-01-11T07:43:44.981Z,95.50
2018-01-11T07:46:12.518Z,95.20
2018-01-11T07:48:40.858Z,94.90
2018-01-11T07:51:08.408Z,94.80
2018-01-11T07:53:35.948Z,94.90
2018-01-11T07:56:03.508Z,94.40
2018-01-11T07:58:31.813Z,94.60
2018-01-11T08:00:59.355Z,94.60
2018-01-11T08:03:27.444Z,94.60
2018-01-11T08:05:54.975Z,94.20
2018-01-11T08:08:22.504Z,94.30
2018-01-11T08:10:50.075Z,94.20
2018-01-11T08:13:18.646Z,94.00
2018-01-11T08:15:46.175Z,94.10
2018-01-11T08:18:15.457Z,93.90
2018-01-11T08:20:43.123Z,93.90
2018-01-11T08:23:11.028Z,94.10
2018-01-11T08:25:39.646Z,94.00
2018-01-11T08:28:07.189Z,93.70
2018-01-11T08:30:34.723Z,93.60
2018-01-11T08:33:02.321Z,93.70
2018-01-11T08:35:29.859Z,94.00
2018-01-11T08:37:58.228Z,93.60
2018-01-11T08:40:25.752Z,93.60
2018-01-11T08:42:53.280Z,93.70
2018-01-11T08:45:20.815Z,93.50
2018-01-11T08:47:48.847Z,93.30
2018-01-11T08:50:16.527Z,93.10
2018-01-11T08:52:44.068Z,93.20
2018-01-11T08:55:11.622Z,93.40
2018-01-11T08:57:39.155Z,93.70
2018-01-11T09:00:06.691Z,93.60
2018-01-11T09:02:35.023Z,93.30
2018-01-11T09:05:02.565Z,93.30
2018-01-11T09:07:30.118Z,93.40
2018-01-11T09:09:58.011Z,93.20
2018-01-11T09:12:25.550Z,92.90
2018-01-11T09:14:53.087Z,93.10
2018-01-11T09:17:20.660Z,93.40
2018-01-11T09:19:48.187Z,92.80
2018-01-11T09:22:16.440Z,92.70
2018-01-11T09:24:44.319Z,92.50
2018-01-11T09:27:11.856Z,92.60
2018-01-11T09:29:39.391Z,92.20
2018-01-11T09:32:07.050Z,92.40
2018-01-11T09:34:34.720Z,92.80
2018-01-11T09:37:02.325Z,92.50
2018-01-11T09:39:29.900Z,92.10
2018-01-11T09:41:58.215Z,92.30
2018-01-11T09:44:25.751Z,92.30
2018-01-11T09:46:53.307Z,92.70
2018-01-11T09:49:21.615Z,92.90
2018-01-11T09:51:49.142Z,92.90
2018-01-11T09:54:17.895Z,92.70
2018-01-11T09:56:46.279Z,92.30
2018-01-11T09:59:16.564Z,92.40
2018-01-11T10:01:44.124Z,92.40
2018-01-11T10:04:11.650Z,91.90
2018-01-11T10:06:39.959Z,91.60
2018-01-11T10:09:07.873Z,91.60
2018-01-11T10:11:35.707Z,91.50
2018-01-11T10:14:04.317Z,91.20
2018-01-11T10:16:32.629Z,91.20
2018-01-11T10:19:01.293Z,91.40
2018-01-11T10:21:29.271Z,91.30
2018-01-11T10:23:57.232Z,91.20
2018-01-11T10:26:25.227Z,90.70
2018-01-11T10:28:53.526Z,90.30
2018-01-11T10:31:21.111Z,90.30
2018-01-11T10:33:48.647Z,90.60
2018-01-11T10:36:16.415Z,91.30
2018-01-11T10:38:44.303Z,91.70
2018-01-11T10:41:11.843Z,91.40
2018-01-11T10:43:39.389Z,91.20
2018-01-11T10:46:07.603Z,91.20
2018-01-11T10:48:35.144Z,91.30
2018-01-11T10:51:03.072Z,90.90
2018-01-11T10:53:31.005Z,90.80
2018-01-11T10:55:58.607Z,91.00
2018-01-11T10:58:26.413Z,91.20
2018-01-11T11:01:00.033Z,91.00
2018-01-11T11:03:27.579Z,90.90
2018-01-11T11:05:55.124Z,90.80
2018-01-11T11:08:22.687Z,91.00
2018-01-11T11:10:50.499Z,91.20
2018-01-11T11:13:18.420Z,91.00
2018-01-11T11:15:46.231Z,91.00
2018-01-11T11:18:26.182Z,90.20
2018-01-11T11:23:56.135Z,90.80
2018-01-11T11:26:24.078Z,91.10
2018-01-11T11:28:53.949Z,91.50
2018-01-11T11:31:21.892Z,91.70
2018-01-11T11:33:49.829Z,91.00
2018-01-11T11:36:17.641Z,91.10
2018-01-11T11:38:45.578Z,91.10
2018-01-11T11:41:15.041Z,91.00
2018-01-11T11:43:42.900Z,90.80
2018-01-11T11:46:11.231Z,91.00
2018-01-11T11:48:40.287Z,90.70
2018-01-11T11:51:08.198Z,90.40
2018-01-11T11:53:37.757Z,90.30
2018-01-11T11:56:05.515Z,90.30
2018-01-11T11:58:33.280Z,90.20
2018-01-11T12:01:01.989Z,90.30
2018-01-11T12:03:29.856Z,90.00
2018-01-11T12:05:57.697Z,90.20
2018-01-11T12:08:26.074Z,90.00
2018-01-11T12:10:53.970Z,90.00
2018-01-11T12:13:21.898Z,90.10
2018-01-11T12:15:49.881Z,89.50
2018-01-11T12:18:17.718Z,88.30
2018-01-11T12:20:45.611Z,89.10
2018-01-11T12:23:14.906Z,89.80
2018-01-11T12:25:42.561Z,89.50
2018-01-11T12:28:10.498Z,89.20
2018-01-11T12:30:39.609Z,89.50
2018-01-11T12:33:07.916Z,88.60
2018-01-11T12:35:35.573Z,88.70
2018-01-11T12:38:03.191Z,89.10
2018-01-11T12:40:32.132Z,89.30
2018-01-11T12:42:59.673Z,88.70
2018-01-11T12:45:27.244Z,89.10
2018-01-11T12:47:54.781Z,88.80
2018-01-11T12:50:23.088Z,87.80
2018-01-11T12:52:51.857Z,87.80
2018-01-11T12:55:20.652Z,87.70
2018-01-11T12:57:48.560Z,87.50
2018-01-11T13:00:17.090Z,86.70
2018-01-11T13:02:46.004Z,87.10
2018-01-11T13:05:24.102Z,86.50
2018-01-11T13:10:28.275Z,88.10
2018-01-11T13:12:56.119Z,87.50
2018-01-11T13:15:23.961Z,87.10
2018-01-11T13:17:52.681Z,87.30
2018-01-11T13:20:20.551Z,87.20
2018-01-11T13:22:48.649Z,87.10
2018-01-11T13:25:17.055Z,86.60
2018-01-11T13:27:45.738Z,87.60
2018-01-11T13:30:26.176Z,87.50
2018-01-11T13:40:40.088Z,87.60
2018-01-11T13:43:07.641Z,90.00
2018-01-11T13:45:35.179Z,90.50
2018-01-11T13:48:03.148Z,90.60
2018-01-11T13:50:31.513Z,91.00
2018-01-11T13:52:59.826Z,91.10
2018-01-11T13:55:27.388Z,91.10
2018-01-11T13:57:54.935Z,91.40
2018-01-11T14:00:22.701Z,91.80
2018-01-11T14:02:50.270Z,91.70
2018-01-11T14:05:17.808Z,91.90
2018-01-11T14:07:45.355Z,92.00
2018-01-11T14:10:14.266Z,92.10
2018-01-11T14:12:41.793Z,92.30
2018-01-11T14:15:09.336Z,92.30
2018-01-11T14:17:37.813Z,92.30
2018-01-11T14:20:05.379Z,92.50
2018-01-11T14:22:32.961Z,92.60
2018-01-11T14:25:00.560Z,92.80
2018-01-11T14:27:28.121Z,93.00
2018-01-11T14:29:55.676Z,93.10
2018-01-11T14:32:23.544Z,93.40
2018-01-11T14:34:52.870Z,93.60
2018-01-11T14:37:21.195Z,93.80
2018-01-11T14:39:48.765Z,93.80
2018-01-11T14:42:16.758Z,94.00
2018-01-11T14:44:44.338Z,94.40
2018-01-11T14:47:11.956Z,94.70
2018-01-11T14:49:39.902Z,95.10
2018-01-11T14:52:07.934Z,95.60
2018-01-11T14:54:37.037Z,95.70
2018-01-11T14:57:04.978Z,95.70
2018-01-11T14:59:32.899Z,95.90
2018-01-11T15:02:04.435Z,95.90
2018-01-11T15:04:33.311Z,96.10
2018-01-11T15:07:01.176Z,96.10
2018-01-11T15:09:29.982Z,96.10
2018-01-11T15:11:58.775Z,96.00
2018-01-11T15:14:26.850Z,96.00
2018-01-11T15:16:55.399Z,95.80
2018-01-11T15:19:22.953Z,95.90
2018-01-11T15:21:50.504Z,95.80
2018-01-11T15:24:18.100Z,95.70
2018-01-11T15:26:46.427Z,95.60
2018-01-11T15:29:15.690Z,95.60
2018-01-11T15:31:43.473Z,95.70
2018-01-11T15:34:11.549Z,95.70
2018-01-11T15:36:39.519Z,95.50
2018-01-11T15:39:08.444Z,95.40
2018-01-11T15:41:36.385Z,95.50
2018-01-11T15:44:05.553Z,95.60
2018-01-11T15:46:33.554Z,95.60
2018-01-11T15:49:01.494Z,95.90
2018-01-11T15:51:30.181Z,96.00
2018-01-11T15:53:58.943Z,95.90
2018-01-11T15:56:26.838Z,95.90
2018-01-11T15:58:54.437Z,96.00
2018-01-11T16:01:22.727Z,96.00
2018-01-11T16:03:50.303Z,96.10
2018-01-11T16:06:17.876Z,96.30
2018-01-11T16:08:46.213Z,96.40
2018-01-11T16:11:16.372Z,95.90
2018-01-11T16:13:44.588Z,95.90
2018-01-11T16:16:12.168Z,95.60
2018-01-11T16:18:39.717Z,95.50
2018-01-11T16:21:07.273Z,95.60
2018-01-11T16:23:35.317Z,95.80
2018-01-11T16:26:02.858Z,95.60
2018-01-11T16:28:31.417Z,95.70
2018-01-11T16:30:59.010Z,95.70
2018-01-11T16:33:28.093Z,95.70
2018-01-11T16:35:55.677Z,95.70
2018-01-11T16:38:24.077Z,96.10
2018-01-11T16:40:52.408Z,96.20
2018-01-11T16:43:19.992Z,96.20
2018-01-11T16:45:49.114Z,96.10
2018-01-11T16:48:29.109Z,96.10
2018-01-11T16:50:56.701Z,96.10
2018-01-11T16:53:24.265Z,96.10
2018-01-11T16:55:52.591Z,95.90
2018-01-11T16:58:20.176Z,95.80
2018-01-11T17:00:47.740Z,95.70
2018-01-11T17:03:17.304Z,95.70
2018-01-11T17:05:51.001Z,95.50
2018-01-11T17:08:18.562Z,95.50
2018-01-11T17:10:48.979Z,95.80
2018-01-11T17:13:16.581Z,95.90
2018-01-11T17:15:44.141Z,95.80
2018-01-11T17:18:11.756Z,95.80
2018-01-11T17:20:47.278Z,96.00
2018-01-11T17:23:26.350Z,96.20
2018-01-11T17:26:40.456Z,96.30
2018-01-11T17:29:08.831Z,97.00
2018-01-11T17:31:36.448Z,96.80
2018-01-11T17:34:04.074Z,96.60
2018-01-11T17:36:32.380Z,96.40
2018-01-11T17:38:59.942Z,96.40
2018-01-11T17:41:27.541Z,96.40
2018-01-11T17:43:55.146Z,96.50
2018-01-11T17:46:22.869Z,96.70
2018-01-11T17:48:50.752Z,96.80
2018-01-11T17:51:18.426Z,96.80
2018-01-11T17:53:46.222Z,96.80
2018-01-11T17:56:25.566Z,96.70
2018-01-11T18:01:26.083Z,96.90
2018-01-11T18:03:53.689Z,97.20
2018-01-11T18:06:21.488Z,97.20
2018-01-11T18:08:49.757Z,97.40
2018-01-11T18:11:17.369Z,97.40
2018-01-11T18:13:45.074Z,97.40
2018-01-11T18:16:12.816Z,97.60
2018-01-11T18:18:40.557Z,97.60
2018-01-11T18:21:08.343Z,97.50
2018-01-11T18:23:37.470Z,97.30
2018-01-11T18:26:05.908Z,97.40
2018-01-11T18:28:34.484Z,97.40
2018-01-11T18:31:03.524Z,97.60
2018-01-11T18:33:31.152Z,97.60
2018-01-11T18:35:58.886Z,97.50
2018-01-11T18:38:26.651Z,97.00
2018-01-11T18:40:55.308Z,96.90
2018-01-11T18:43:23.637Z,97.20
2018-01-11T18:45:51.279Z,97.50
2018-01-11T18:48:19.356Z,97.30
2018-01-11T18:50:46.977Z,97.50
2018-01-11T18:53:15.898Z,97.30
2018-01-11T18:55:43.542Z,97.10
2018-01-11T18:58:11.858Z,96.70
2018-01-11T19:00:39.517Z,97.00
2018-01-11T19:03:08.061Z,97.20
2018-01-11T19:05:35.740Z,97.10
2018-01-11T19:08:03.552Z,97.00
2018-01-11T19:10:32.061Z,97.00
2018-01-11T19:12:59.898Z,97.00
2018-01-11T19:15:28.209Z,96.70
2018-01-11T19:17:56.717Z,97.00
2018-01-11T19:20:24.315Z,96.90
2018-01-11T19:22:51.904Z,96.80
2018-01-11T19:25:19.523Z,96.70
2018-01-11T19:27:47.982Z,96.80
2018-01-11T19:30:15.608Z,97.00
2018-01-11T19:32:43.147Z,96.90
2018-01-11T19:35:10.702Z,96.70
2018-01-11T19:37:38.311Z,96.70
2018-01-11T19:40:05.945Z,96.60
2018-01-11T19:42:33.572Z,96.60
2018-01-11T19:45:12.302Z,96.40
2018-01-11T19:47:40.140Z,96.30
2018-01-11T19:52:50.676Z,96.40
2018-01-11T19:55:22.711Z,96.20
2018-01-11T19:57:50.280Z,96.60
2018-01-11T20:00:17.870Z,96.50
2018-01-11T20:02:45.669Z,96.70
2018-01-11T20:05:23.659Z,96.90
2018-01-11T20:09:52.534Z,96.80
2018-01-11T20:12:20.411Z,96.70
2018-01-11T20:15:18.246Z,97.00
2018-01-11T20:17:46.315Z,97.10
2018-01-11T20:20:25.553Z,97.00
2018-01-11T20:25:21.701Z,96.90
2018-01-11T20:27:49.455Z,97.00
2018-01-11T20:30:18.542Z,97.10
2018-01-11T20:32:46.256Z,97.00
2018-01-11T20:35:31.658Z,97.30
2018-01-11T20:46:19.342Z,97.30
2018-01-11T20:48:47.682Z,97.70
2018-01-11T20:51:18.138Z,97.90
2018-01-11T20:53:47.341Z,97.80
2018-01-11T20:56:15.588Z,97.80
2018-01-11T20:58:43.177Z,97.90
2018-01-11T21:01:10.756Z,97.50
2018-01-11T21:03:38.309Z,97.30
2018-01-11T21:06:06.616Z,97.40
2018-01-11T21:08:34.196Z,97.40
2018-01-11T21:11:01.744Z,97.10
2018-01-11T21:13:29.293Z,97.00
2018-01-11T21:15:57.232Z,97.30
2018-01-11T21:18:24.906Z,97.40
2018-01-11T21:20:52.494Z,97.50
2018-01-11T21:23:20.100Z,97.40
2018-01-11T21:25:48.458Z,97.20
2018-01-11T21:28:16.470Z,97.00
2018-01-11T21:30:44.083Z,96.80
2018-01-11T21:33:11.671Z,96.90
2018-01-11T21:35:39.994Z,96.80
2018-01-11T21:38:07.640Z,96.70
2018-01-11T21:40:35.361Z,96.50
2018-01-11T21:43:02.979Z,96.50
2018-01-11T22:25:48.341Z,96.90
2018-01-11T22:28:16.452Z,96.80
2018-01-11T22:30:44.034Z,97.10
2018-01-11T22:33:11.753Z,97.20
2018-01-11T22:35:39.482Z,97.30
2018-01-11T22:43:07.738Z,96.90
2018-01-11T22:45:36.956Z,96.90
2018-01-11T22:48:05.195Z,97.30
2018-01-11T22:50:32.882Z,97.10
2018-01-11T22:53:02.776Z,97.20
2018-01-11T22:55:30.490Z,97.20
2018-01-11T22:57:59.046Z,97.00
2018-01-11T23:00:27.015Z,97.20
2018-01-11T23:02:55.402Z,96.80
2018-01-11T23:05:23.102Z,96.90
2018-01-11T23:07:51.082Z,96.70
2018-01-11T23:10:18.714Z,96.50
2018-01-11T23:12:46.659Z,96.40
2018-01-11T23:15:25.337Z,96.40
2018-01-11T23:23:33.879Z,96.00
2018-01-11T23:26:01.849Z,96.10
2018-01-11T23:28:31.086Z,96.10
2018-01-11T23:30:58.778Z,96.20
2018-01-11T23:33:27.446Z,96.10
2018-01-11T23:35:56.475Z,96.10
2018-01-11T23:38:24.188Z,96.10
2018-01-11T23:40:52.784Z,96.20
2018-01-11T23:43:20.635Z,96.30
2018-01-11T23:45:48.628Z,96.10
2018-01-11T23:48:17.129Z,96.10
2018-01-11T23:50:45.297Z,96.10
2018-01-11T23:53:15.901Z,96.10
2018-01-11T23:55:45.019Z,96.30
2018-01-11T23:58:12.868Z,96.30
